KRAC

Batten International Airport

Racine, Wisconsin, USA
METAR KRAC 182223Z AUTO 33005KT 7SM VCTS -RA SCT014 BKN031 BKN060 23/23 A2994 RMK AO2 LTG DSNT E-SW TSE17 P0007 T02330228
Observed Flight Rules
Jun-18 @ 22:23 UTC (8 minutes ago) Visual Flight Rules
Wind Visibility Clouds Conditions
330° at 5 knots 7 miles
  • Scattered at 1,400' AGL
  • Broken at 3,100' AGL
  • Broken at 6,000' AGL
  • Area Thunderstorm
  • Light Rain
Temperatures Readings Precipitation
Current 23°C / 73°F
Dewpoint 23°C / 73°F
Humidity 100%
Altimeter 29.94" Hg
Pressure 1014 hPa
Elevation 203
Current Rain 0.07
METAR KRAC 182223Z AUTO 33005KT 7SM VCTS -RA SCT014 BKN031 BKN060 23/23 A2994 RMK AO2 LTG DSNT E-SW TSE17 P0007 T02330228
Observed Flight Rules
Jun-18 @ 22:23 UTC
(8 minutes ago)
VFR
Wind Visibility
330° at 5 knots 7 miles
Clouds
  • Scattered at 1,400' AGL
  • Broken at 3,100' AGL
  • Broken at 6,000' AGL
Conditions
  • Area Thunderstorm
  • Light Rain
Temperature Dewpoint
23°C / 73°F 23°C / 73°F
Humidity Altimeter Pressure
100% 29.94" Hg 1014 hPa
Current Rain
0.07